06:01
Airports
History
Links
Donate
Help keep this website running!
PayPal
Bitcoin
This page is community maintained. The information is intended for PC simulator navigation or reference.
Always use approved charts for navigation.
SDAI
AMERICANA
AMERICANA (SDAI)
Americana, São Paulo, Brazil
(U)
Lat/Lng:22° 45' 20.83" S / 47° 16' 10" W
-22.755786 / -47.269444
Elevation:2085'ft / 636mMSL
ID / ICAO:SDAI
Runways:1
Longest:12-30
Asphalt 1,110m / 3,643ft
Nearby Weather06:00 GMT 2017-11-20
Nearby weather at SBKP, Sao Paulo Viracopos located 19.4 nautical miles from SDAI
Altimeter: 29.88
Visibility: 6.2 statute miles
Wind: 9 knots (from 120°)
Temp: 20°c / 68°f
Humidity: 82.9%

METAR: SBKP 200600Z 12009KT CAVOK 20/17 Q1012

(Powered by phpweather)
Runway 12 / 30
Dimensions:1110.4 x 18m 3643' x 59'ft
Surface:Asphalt
Edge Lights:Low intensity
Runway 12 [A]Runway 30 [B]
Heading:095°TH 275°TH
Lat:
Lng:
22° 45' 19.17"S
47° 16' 29.39"W
22° 45' 22.49"S
47° 15' 50.6"W
User Notes and Comments
22° 45' 20.83" S / 47° 16' 10" W
Distance To
Airport ID:
Nearby Airports
4 Rodrigues 4.5 NM
SIQK WSW 246°
(C) Amarais 12.5 NM
SDAM SE 124°
4 Limeira 13.9 NM
SDYM NW 319°
(C) Sao Paulo Viracopos 19.4 NM
SBKP ( WX ) SSE 153°
(C) Piracicaba 22.4 NM
SDPW W 277°
(C) Rio Claro 29.2 NM
SDRK NW 320°
(C) Araras 29.4 NM
SDAA NNW 348°
VFR Chart
Flight Planning at SkyVector.com